createdAt,value
2022-12-03T00:02:16.239Z,1.00
2022-12-03T00:04:43.294Z,0.90
2022-12-03T00:07:10.231Z,0.80
2022-12-03T00:09:36.715Z,0.80
2022-12-03T00:12:03.744Z,0.90
2022-12-03T00:14:30.225Z,0.90
2022-12-03T00:16:57.140Z,0.90
2022-12-03T00:19:24.085Z,0.90
2022-12-03T00:21:50.611Z,0.90
2022-12-03T00:24:17.528Z,0.90
2022-12-03T00:26:44.028Z,0.80
2022-12-03T00:29:11.635Z,0.70
2022-12-03T00:31:38.222Z,0.70
2022-12-03T00:34:04.772Z,0.60
2022-12-03T00:36:31.690Z,0.60
2022-12-03T00:38:58.200Z,0.60
2022-12-03T00:41:25.131Z,0.60
2022-12-03T00:43:52.084Z,0.60
2022-12-03T00:46:21.623Z,0.60
2022-12-03T00:48:48.866Z,0.60
2022-12-03T00:51:15.823Z,0.60
2022-12-03T00:53:42.737Z,0.60
2022-12-03T00:56:09.665Z,0.50
2022-12-03T00:58:36.649Z,0.50
2022-12-03T01:01:03.132Z,0.50
2022-12-03T01:03:29.612Z,0.50
2022-12-03T01:05:56.533Z,0.50
2022-12-03T01:08:23.021Z,0.50
2022-12-03T01:10:49.929Z,0.50
2022-12-03T01:13:16.849Z,0.50
2022-12-03T01:15:43.609Z,0.50
2022-12-03T01:18:10.685Z,0.70
2022-12-03T01:20:38.461Z,0.50
2022-12-03T01:23:05.041Z,0.50
2022-12-03T01:25:31.980Z,0.50
2022-12-03T01:27:58.455Z,0.50
2022-12-03T01:30:25.386Z,0.50
2022-12-03T01:32:51.922Z,0.50
2022-12-03T01:35:18.855Z,0.50
2022-12-03T01:37:45.777Z,0.50
2022-12-03T01:40:16.120Z,0.50
2022-12-03T01:42:43.083Z,0.50
2022-12-03T01:45:16.358Z,0.50
2022-12-03T01:47:43.325Z,0.60
2022-12-03T01:50:39.157Z,0.50
2022-12-03T01:53:06.122Z,0.50
2022-12-03T01:55:32.698Z,0.50
2022-12-03T01:58:01.154Z,0.60
2022-12-03T02:00:28.657Z,0.60
2022-12-03T02:02:56.430Z,0.60
2022-12-03T02:05:33.264Z,0.50
2022-12-03T02:08:00.315Z,0.50
2022-12-03T02:10:29.714Z,0.50
2022-12-03T02:12:58.263Z,0.60
2022-12-03T02:15:25.262Z,0.50
2022-12-03T02:17:52.494Z,0.50
2022-12-03T02:20:19.130Z,0.60
2022-12-03T02:22:46.027Z,0.50
2022-12-03T02:25:16.211Z,0.60
2022-12-03T02:27:42.860Z,0.60
2022-12-03T02:30:10.752Z,0.50
2022-12-03T02:32:37.824Z,0.50
2022-12-03T02:35:04.413Z,0.60
2022-12-03T02:37:33.487Z,0.50
2022-12-03T02:40:01.977Z,0.50
2022-12-03T02:42:35.846Z,0.50
2022-12-03T02:45:05.952Z,0.60
2022-12-03T02:47:34.574Z,0.50
2022-12-03T02:50:01.195Z,0.50
2022-12-03T02:52:28.205Z,0.50
2022-12-03T02:54:55.621Z,0.50
2022-12-03T02:57:22.466Z,0.40
2022-12-03T02:59:49.476Z,0.40
2022-12-03T03:02:16.690Z,0.30
2022-12-03T03:04:44.275Z,0.30
2022-12-03T03:07:11.272Z,0.30
2022-12-03T03:09:38.253Z,0.30
2022-12-03T03:12:04.862Z,0.30
2022-12-03T03:14:32.553Z,0.30
2022-12-03T03:16:59.779Z,0.30
2022-12-03T03:19:26.545Z,0.40
2022-12-03T03:21:53.880Z,0.30
2022-12-03T03:24:21.186Z,0.30
2022-12-03T03:26:48.661Z,0.30
2022-12-03T03:29:15.570Z,0.30
2022-12-03T03:31:42.661Z,0.30
2022-12-03T03:34:09.970Z,0.30
2022-12-03T03:36:36.632Z,0.30
2022-12-03T03:39:05.197Z,0.30
2022-12-03T03:41:32.513Z,0.30
2022-12-03T03:43:59.837Z,0.30
2022-12-03T03:46:27.623Z,0.30
2022-12-03T03:48:54.148Z,0.30
2022-12-03T03:51:21.276Z,0.30
2022-12-03T03:53:48.993Z,0.30
2022-12-03T03:56:16.943Z,0.30
2022-12-03T03:58:43.442Z,0.30
2022-12-03T04:01:11.809Z,0.30
2022-12-03T04:03:38.403Z,0.30
2022-12-03T04:06:05.549Z,0.30
2022-12-03T04:08:32.509Z,0.30
2022-12-03T04:11:17.935Z,0.30
2022-12-03T04:13:44.852Z,0.20
2022-12-03T04:16:11.838Z,0.20
2022-12-03T04:18:44.271Z,0.20
2022-12-03T04:21:33.182Z,0.10
2022-12-03T04:24:00.705Z,0.00
2022-12-03T04:26:45.976Z,-0.10
2022-12-03T04:29:12.995Z,0.00
2022-12-03T04:31:58.915Z,0.00
2022-12-03T04:34:44.435Z,0.00
2022-12-03T04:37:11.107Z,-0.10
2022-12-03T04:39:38.077Z,-0.10
2022-12-03T04:42:05.685Z,-0.10
2022-12-03T04:44:36.654Z,-0.10
2022-12-03T04:47:09.662Z,0.00
2022-12-03T04:49:37.241Z,-0.10
2022-12-03T04:52:04.545Z,-0.20
2022-12-03T04:54:31.484Z,-0.10
2022-12-03T04:56:58.049Z,-0.10
2022-12-03T04:59:25.054Z,-0.10
2022-12-03T05:01:51.630Z,-0.10
2022-12-03T05:04:18.267Z,-0.10
2022-12-03T05:06:45.391Z,-0.10
2022-12-03T05:09:12.924Z,-0.10
2022-12-03T05:11:40.360Z,-0.10
2022-12-03T05:14:07.131Z,0.00
2022-12-03T05:16:34.141Z,-0.10
2022-12-03T05:19:01.034Z,-0.10
2022-12-03T05:21:30.259Z,-0.10
2022-12-03T05:23:57.215Z,-0.10
2022-12-03T05:26:23.710Z,-0.20
2022-12-03T05:28:50.613Z,-0.20
2022-12-03T05:31:17.212Z,-0.10
2022-12-03T05:33:44.533Z,-0.20
2022-12-03T05:36:11.697Z,-0.10
2022-12-03T05:38:38.321Z,0.00
2022-12-03T05:41:25.320Z,-0.10
2022-12-03T05:43:51.822Z,0.00
2022-12-03T05:46:18.524Z,0.00
2022-12-03T05:48:45.604Z,0.00
2022-12-03T05:51:12.110Z,0.00
2022-12-03T05:53:38.569Z,0.00
2022-12-03T05:56:05.698Z,0.10
2022-12-03T05:58:32.267Z,0.00
2022-12-03T06:00:58.745Z,0.00
2022-12-03T06:03:25.755Z,0.00
2022-12-03T06:05:52.457Z,0.00
2022-12-03T06:08:19.374Z,0.00
2022-12-03T06:10:46.350Z,0.00
2022-12-03T06:13:12.800Z,-0.10
2022-12-03T06:15:43.716Z,-0.10
2022-12-03T06:18:11.441Z,-0.10
2022-12-03T06:20:37.922Z,-0.10
2022-12-03T06:23:04.835Z,-0.10
2022-12-03T06:25:31.317Z,-0.10
2022-12-03T06:27:58.247Z,-0.20
2022-12-03T06:30:25.150Z,-0.20
2022-12-03T06:32:52.130Z,-0.20
2022-12-03T06:35:18.617Z,-0.20
2022-12-03T06:37:45.091Z,-0.20
2022-12-03T06:40:12.263Z,-0.20
2022-12-03T06:42:38.774Z,-0.20
2022-12-03T06:45:05.624Z,-0.20
2022-12-03T06:47:32.813Z,-0.20
2022-12-03T06:49:59.701Z,-0.20
2022-12-03T06:52:26.589Z,-0.20
2022-12-03T06:54:53.323Z,-0.20
2022-12-03T06:57:20.017Z,-0.20
2022-12-03T06:59:46.912Z,-0.20
2022-12-03T07:02:13.461Z,-0.20
2022-12-03T07:04:44.811Z,-0.20
2022-12-03T07:07:13.322Z,-0.20
2022-12-03T07:09:39.829Z,-0.20
2022-12-03T07:12:06.428Z,-0.30
2022-12-03T07:14:33.340Z,-0.20
2022-12-03T07:16:59.803Z,-0.20
2022-12-03T07:19:32.112Z,-0.20
2022-12-03T07:21:59.593Z,-0.20
2022-12-03T07:24:26.077Z,-0.20
2022-12-03T07:26:52.984Z,-0.20
2022-12-03T07:29:19.578Z,-0.30
2022-12-03T07:31:46.553Z,-0.30
2022-12-03T07:34:13.096Z,-0.20
2022-12-03T07:36:39.559Z,-0.20
2022-12-03T07:39:06.496Z,-0.10
2022-12-03T07:41:32.948Z,-0.10
2022-12-03T07:43:59.461Z,-0.10
2022-12-03T07:46:26.387Z,0.00
2022-12-03T07:48:53.358Z,0.00
2022-12-03T07:51:19.881Z,0.00
2022-12-03T07:53:46.849Z,0.00
2022-12-03T07:56:13.304Z,0.00
2022-12-03T07:58:39.794Z,0.00
2022-12-03T08:01:06.877Z,0.00
2022-12-03T08:03:33.401Z,0.10
2022-12-03T08:06:00.290Z,0.10
2022-12-03T08:08:27.196Z,0.00
2022-12-03T08:10:53.658Z,0.10
2022-12-03T08:13:20.142Z,0.00
2022-12-03T08:15:47.176Z,0.00
2022-12-03T08:18:15.735Z,0.00
2022-12-03T08:20:43.150Z,0.00
2022-12-03T08:23:12.493Z,0.00
2022-12-03T08:25:39.007Z,0.00
2022-12-03T08:28:11.820Z,-0.10
2022-12-03T08:30:38.296Z,0.00
2022-12-03T08:33:20.906Z,0.00
2022-12-03T08:35:49.860Z,0.00
2022-12-03T08:38:16.523Z,0.00
2022-12-03T08:40:44.138Z,0.00
2022-12-03T08:43:18.460Z,0.10
2022-12-03T08:45:45.716Z,0.10
2022-12-03T08:48:14.984Z,0.00
2022-12-03T08:50:42.190Z,0.10
2022-12-03T08:53:23.697Z,0.10
2022-12-03T08:55:54.270Z,0.10
2022-12-03T08:58:41.108Z,0.10
2022-12-03T09:01:11.162Z,0.10
2022-12-03T09:04:07.055Z,0.00
2022-12-03T09:06:34.213Z,0.00
2022-12-03T09:09:06.330Z,0.00
2022-12-03T09:11:33.713Z,0.00
2022-12-03T09:14:00.616Z,0.20
2022-12-03T09:16:28.107Z,0.20
2022-12-03T09:18:55.087Z,0.20
2022-12-03T09:21:21.562Z,0.30
2022-12-03T09:23:51.688Z,0.40
2022-12-03T09:26:18.859Z,0.40
2022-12-03T09:28:46.203Z,0.40
2022-12-03T09:31:13.100Z,0.50
2022-12-03T09:33:40.038Z,0.60
2022-12-03T09:36:07.008Z,0.70
2022-12-03T09:38:33.889Z,0.70
2022-12-03T09:43:49.531Z,0.70
2022-12-03T09:46:14.043Z,1.10
2022-12-03T09:48:41.154Z,0.60
2022-12-03T09:51:09.276Z,0.70
2022-12-03T09:53:40.975Z,1.90
2022-12-03T09:56:12.937Z,0.60
2022-12-03T09:58:39.449Z,0.70
2022-12-03T10:01:12.401Z,0.70
2022-12-03T10:03:40.942Z,0.90
2022-12-03T10:06:10.156Z,0.90
2022-12-03T10:08:36.723Z,0.90
2022-12-03T10:11:03.908Z,0.80
2022-12-03T10:13:32.002Z,0.70
2022-12-03T10:16:01.383Z,0.60
2022-12-03T10:18:30.854Z,0.60
2022-12-03T10:20:58.114Z,0.50
2022-12-03T10:23:25.929Z,0.50
2022-12-03T10:25:54.034Z,0.60
2022-12-03T10:28:34.554Z,0.60
2022-12-03T10:31:02.488Z,0.50
2022-12-03T10:33:30.636Z,0.60
2022-12-03T10:35:57.334Z,0.50
2022-12-03T10:38:24.289Z,0.50
2022-12-03T10:40:51.275Z,0.60
2022-12-03T10:43:17.722Z,0.60
2022-12-03T10:45:48.838Z,0.60
2022-12-03T10:48:16.893Z,0.60
2022-12-03T10:50:51.709Z,0.60
2022-12-03T10:53:19.487Z,0.70
2022-12-03T10:55:46.826Z,0.60
2022-12-03T10:58:19.909Z,0.70
2022-12-03T11:00:46.600Z,0.60
2022-12-03T11:03:17.765Z,0.70
2022-12-03T11:05:44.285Z,0.60
2022-12-03T11:08:22.165Z,0.70
2022-12-03T11:10:58.109Z,0.70
2022-12-03T11:13:34.148Z,0.70
2022-12-03T11:16:05.824Z,0.70
2022-12-03T11:18:39.096Z,0.70
2022-12-03T11:21:09.968Z,0.80
2022-12-03T11:23:45.953Z,0.90
2022-12-03T11:26:19.245Z,0.90
2022-12-03T11:28:46.736Z,0.90
2022-12-03T11:31:40.044Z,0.90
2022-12-03T11:34:18.808Z,0.70
2022-12-03T11:37:04.542Z,0.70
2022-12-03T11:39:50.091Z,2.00
2022-12-03T11:42:25.734Z,0.70
2022-12-03T11:45:04.950Z,0.80
2022-12-03T11:47:43.630Z,0.70
2022-12-03T11:50:23.859Z,0.80
2022-12-03T11:53:00.460Z,0.80
2022-12-03T11:55:30.414Z,0.70
2022-12-03T11:57:58.234Z,0.70
2022-12-03T12:00:25.245Z,0.70
2022-12-03T12:02:53.552Z,0.70
2022-12-03T12:05:25.742Z,0.80
2022-12-03T12:07:53.012Z,0.70
2022-12-03T12:10:38.496Z,0.80
2022-12-03T12:13:04.976Z,0.70
2022-12-03T12:15:42.668Z,0.70
2022-12-03T12:18:27.940Z,0.70
2022-12-03T12:20:54.827Z,0.70
2022-12-03T12:23:23.110Z,0.70
2022-12-03T12:25:54.170Z,0.70
2022-12-03T12:28:21.076Z,0.90
2022-12-03T12:30:47.587Z,0.70
2022-12-03T12:33:19.298Z,0.80
2022-12-03T12:35:45.805Z,0.80
2022-12-03T12:38:14.032Z,0.80
2022-12-03T12:40:42.154Z,0.80
2022-12-03T12:43:13.547Z,0.80
2022-12-03T12:45:43.274Z,0.70
2022-12-03T12:48:10.225Z,0.80
2022-12-03T12:50:37.029Z,0.80
2022-12-03T12:53:12.876Z,0.80
2022-12-03T12:55:39.774Z,0.70
2022-12-03T12:58:15.306Z,0.70
2022-12-03T13:00:41.888Z,0.70
2022-12-03T13:03:10.826Z,0.70
2022-12-03T13:05:39.531Z,0.70
2022-12-03T13:08:32.049Z,0.70
2022-12-03T13:10:59.924Z,0.70
2022-12-03T13:13:29.388Z,0.80
2022-12-03T13:15:56.280Z,0.80
2022-12-03T13:18:27.956Z,0.80
2022-12-03T13:20:55.637Z,0.80
2022-12-03T13:23:30.172Z,0.80
2022-12-03T13:26:04.722Z,0.90
2022-12-03T13:28:41.231Z,1.10
2022-12-03T13:31:28.261Z,1.00
2022-12-03T13:33:55.586Z,0.90
2022-12-03T13:36:23.679Z,1.00
2022-12-03T13:38:51.014Z,0.90
2022-12-03T13:41:39.619Z,0.90
2022-12-03T13:44:21.997Z,1.10
2022-12-03T13:46:48.516Z,0.80
2022-12-03T13:49:22.385Z,0.80
2022-12-03T13:51:49.126Z,0.80
2022-12-03T13:54:18.910Z,0.90
2022-12-03T13:56:45.807Z,0.90
2022-12-03T13:59:12.649Z,0.90
2022-12-03T14:01:39.335Z,0.90
2022-12-03T14:04:06.379Z,0.90
2022-12-03T14:06:33.582Z,0.90
2022-12-03T14:09:00.555Z,0.90
2022-12-03T14:11:45.755Z,0.80
2022-12-03T14:14:12.873Z,0.80
2022-12-03T14:16:39.889Z,0.80
2022-12-03T14:19:06.616Z,0.80
2022-12-03T14:21:33.531Z,0.80
2022-12-03T14:24:00.002Z,0.80
2022-12-03T14:26:26.690Z,0.80
2022-12-03T14:28:53.633Z,0.80
2022-12-03T14:31:20.206Z,0.80
2022-12-03T14:33:47.115Z,0.80
2022-12-03T14:36:13.646Z,0.80
2022-12-03T14:38:40.536Z,0.80
2022-12-03T14:41:28.039Z,0.80
2022-12-03T14:43:54.565Z,0.80
2022-12-03T14:46:21.134Z,0.70
2022-12-03T14:48:48.122Z,0.80
2022-12-03T14:51:14.677Z,0.70
2022-12-03T14:53:41.141Z,0.70
2022-12-03T14:56:08.021Z,0.60
2022-12-03T14:58:34.764Z,0.70
2022-12-03T15:01:01.754Z,0.60
2022-12-03T15:03:28.322Z,0.60
2022-12-03T15:05:55.281Z,0.60
2022-12-03T15:08:22.304Z,0.40
2022-12-03T15:10:48.803Z,0.40
2022-12-03T15:13:15.264Z,0.40
2022-12-03T15:15:42.751Z,0.40
2022-12-03T15:18:10.072Z,0.40
2022-12-03T15:20:37.598Z,0.40
2022-12-03T15:23:04.640Z,0.40
2022-12-03T15:25:31.293Z,0.40
2022-12-03T15:27:57.786Z,0.40
2022-12-03T15:30:24.726Z,0.40
2022-12-03T15:32:51.698Z,0.40
2022-12-03T15:35:18.651Z,0.40
2022-12-03T15:37:45.527Z,0.40
2022-12-03T15:40:12.630Z,0.40
2022-12-03T15:45:31.350Z,0.40
2022-12-03T15:48:03.495Z,0.30
2022-12-03T15:50:37.029Z,1.40
2022-12-03T15:53:08.080Z,0.30
2022-12-03T15:55:35.430Z,0.20
2022-12-03T15:58:02.124Z,2.20
2022-12-03T16:00:29.618Z,1.10
2022-12-03T16:02:56.966Z,0.30
2022-12-03T16:12:12.914Z,0.20
2022-12-03T16:14:41.725Z,0.20
2022-12-03T16:20:25.707Z,0.00
2022-12-03T16:29:21.422Z,-0.10
2022-12-03T16:31:50.846Z,0.40
2022-12-03T16:34:23.654Z,-0.10
2022-12-03T16:52:45.653Z,-0.30
2022-12-03T17:07:26.867Z,-0.20
2022-12-03T17:09:59.887Z,-0.20
2022-12-03T17:12:37.525Z,-0.20
2022-12-03T17:15:13.322Z,-0.20
2022-12-03T17:17:39.834Z,-0.20
2022-12-03T17:20:08.094Z,0.40
2022-12-03T17:22:35.027Z,-0.20
2022-12-03T17:25:01.603Z,1.20
2022-12-03T17:27:29.395Z,-0.20
2022-12-03T17:29:56.434Z,-0.10
2022-12-03T17:32:23.176Z,-0.20
2022-12-03T17:34:49.748Z,-0.20
2022-12-03T17:37:16.818Z,-0.20
2022-12-03T17:39:43.733Z,-0.20
2022-12-03T17:42:10.257Z,-0.20
2022-12-03T17:44:37.141Z,-0.20
2022-12-03T17:47:03.813Z,-0.20
2022-12-03T17:49:31.797Z,-0.30
2022-12-03T17:51:58.969Z,-0.30
2022-12-03T17:54:37.958Z,-0.20
2022-12-03T17:57:12.394Z,-0.20
2022-12-03T17:59:38.867Z,-0.30
2022-12-03T18:02:05.464Z,-0.30
2022-12-03T18:04:32.521Z,-0.40
2022-12-03T18:07:02.270Z,-0.40
2022-12-03T18:09:30.282Z,-0.10
2022-12-03T18:15:12.814Z,-0.50
2022-12-03T18:20:34.682Z,-0.50
2022-12-03T18:27:14.057Z,-0.60
2022-12-03T18:29:45.807Z,-0.60
2022-12-03T18:32:27.769Z,0.50
2022-12-03T18:35:00.321Z,-0.70
2022-12-03T18:37:37.933Z,-0.80
2022-12-03T18:40:12.498Z,-0.80
2022-12-03T18:42:39.788Z,-0.80
2022-12-03T18:45:07.280Z,-0.40
2022-12-03T18:47:34.245Z,-0.70
2022-12-03T18:50:00.881Z,-0.50
2022-12-03T18:52:27.451Z,-0.60
2022-12-03T18:54:58.849Z,0.20
2022-12-03T18:57:29.654Z,-0.50
2022-12-03T19:00:00.400Z,-0.50
2022-12-03T19:03:00.671Z,-0.50
2022-12-03T19:05:13.787Z,-0.40
2022-12-03T19:07:40.913Z,-0.50
2022-12-03T19:10:07.865Z,-0.50
2022-12-03T19:12:34.450Z,-0.40
2022-12-03T19:15:01.485Z,-0.40
2022-12-03T19:17:28.408Z,-0.40
2022-12-03T19:19:55.480Z,-0.30
2022-12-03T19:22:22.850Z,-0.30
2022-12-03T19:24:49.962Z,-0.30
2022-12-03T19:27:16.433Z,-0.30
2022-12-03T19:29:43.426Z,-0.30
2022-12-03T19:32:09.933Z,-0.30
2022-12-03T19:34:36.932Z,-0.30
2022-12-03T19:37:03.403Z,-0.30
2022-12-03T19:39:29.865Z,-0.30
2022-12-03T19:41:56.778Z,-0.20
2022-12-03T19:44:23.370Z,-0.20
2022-12-03T19:46:50.742Z,-0.20
2022-12-03T19:49:18.758Z,-0.20
2022-12-03T19:51:45.319Z,-0.20
2022-12-03T19:54:12.610Z,-0.20
2022-12-03T19:56:39.476Z,-0.30
2022-12-03T19:59:06.448Z,-0.30
2022-12-03T20:01:34.882Z,-0.30
2022-12-03T20:04:02.446Z,-0.30
2022-12-03T20:06:31.725Z,-0.20
2022-12-03T20:09:00.107Z,-0.20
2022-12-03T20:11:32.025Z,-0.20
2022-12-03T20:14:00.049Z,-0.10
2022-12-03T20:16:28.629Z,-0.10
2022-12-03T20:18:59.472Z,0.10
2022-12-03T20:21:41.335Z,-0.20
2022-12-03T20:24:18.295Z,-0.20
2022-12-03T20:26:45.400Z,-0.30
2022-12-03T20:29:12.420Z,-0.20
2022-12-03T20:31:39.484Z,-0.20
2022-12-03T20:34:07.005Z,-0.20
2022-12-03T20:36:33.855Z,0.90
2022-12-03T20:39:02.091Z,0.60
2022-12-03T20:41:28.932Z,0.30
2022-12-03T20:43:56.189Z,-0.30
2022-12-03T20:46:23.904Z,-0.20
2022-12-03T20:48:51.259Z,-0.20
2022-12-03T20:51:19.346Z,-0.20
2022-12-03T20:53:46.265Z,-0.20
2022-12-03T20:56:20.836Z,-0.20
2022-12-03T20:58:49.182Z,-0.20
2022-12-03T21:01:31.425Z,-0.20
2022-12-03T21:04:02.183Z,-0.20
2022-12-03T21:06:33.349Z,-0.20
2022-12-03T21:11:48.242Z,-0.20
2022-12-03T21:17:10.214Z,-0.20
2022-12-03T21:22:24.707Z,-0.20
2022-12-03T21:24:51.648Z,0.70
2022-12-03T21:27:21.657Z,-0.20
2022-12-03T21:29:48.520Z,-0.20
2022-12-03T21:32:15.477Z,0.40
2022-12-03T21:34:42.268Z,-0.10
2022-12-03T21:37:09.167Z,-0.20
2022-12-03T21:39:36.315Z,-0.20
2022-12-03T21:42:18.673Z,-0.10
2022-12-03T21:44:49.814Z,1.50
2022-12-03T21:47:16.320Z,-0.30
2022-12-03T21:49:43.363Z,-0.20
2022-12-03T21:52:10.906Z,-0.20
2022-12-03T21:54:37.853Z,-0.20
2022-12-03T21:57:04.769Z,-0.20
2022-12-03T21:59:31.269Z,-0.20
2022-12-03T22:01:58.411Z,0.20
2022-12-03T22:04:24.975Z,-0.10
2022-12-03T22:06:51.467Z,-0.20
2022-12-03T22:09:21.825Z,-0.10
2022-12-03T22:11:55.273Z,-0.10
2022-12-03T22:14:21.731Z,-0.10
2022-12-03T22:16:48.674Z,-0.10
2022-12-03T22:19:15.153Z,-0.20
2022-12-03T22:21:41.607Z,-0.20
2022-12-03T22:24:08.563Z,-0.20
2022-12-03T22:26:35.353Z,-0.20
2022-12-03T22:29:02.308Z,-0.20
2022-12-03T22:31:28.798Z,-0.20
2022-12-03T22:33:55.788Z,-0.20
2022-12-03T22:36:22.709Z,-0.20
2022-12-03T22:38:50.534Z,-0.20
2022-12-03T22:41:17.807Z,-0.20
2022-12-03T22:43:44.664Z,-0.10
2022-12-03T22:46:14.354Z,-0.10
2022-12-03T22:48:41.687Z,-0.20
2022-12-03T22:51:16.605Z,-0.20
2022-12-03T22:53:43.567Z,-0.10
2022-12-03T22:56:10.292Z,-0.20
2022-12-03T22:58:37.856Z,-0.20
2022-12-03T23:01:04.842Z,-0.10
2022-12-03T23:03:31.377Z,-0.10
2022-12-03T23:05:58.349Z,-0.10
2022-12-03T23:08:24.864Z,-0.10
2022-12-03T23:10:51.868Z,-0.10
2022-12-03T23:13:19.908Z,-0.10
2022-12-03T23:15:51.583Z,-0.10
2022-12-03T23:18:19.449Z,-0.10
2022-12-03T23:20:47.542Z,-0.10
2022-12-03T23:23:14.275Z,-0.10
2022-12-03T23:25:41.239Z,-0.10
2022-12-03T23:28:07.882Z,-0.10
2022-12-03T23:30:35.503Z,-0.10
2022-12-03T23:33:02.565Z,-0.10
2022-12-03T23:35:29.104Z,0.00
2022-12-03T23:37:55.601Z,1.60
2022-12-03T23:40:22.698Z,0.00
2022-12-03T23:42:49.193Z,-0.10
2022-12-03T23:45:16.164Z,-0.10
2022-12-03T23:47:42.635Z,-0.10
2022-12-03T23:50:11.416Z,-0.10
2022-12-03T23:52:37.910Z,-0.10
2022-12-03T23:55:04.972Z,-0.10
2022-12-03T23:57:32.021Z,-0.10
2022-12-03T23:59:58.952Z,-0.10
